Cap Castillo — A8PI5 — position and weather

sailwx.info

Track history (hours):
 
Tides and Currents Weather Stations Pressure Air Temp Water Temp Dewpoint Dewpoint Depression Visibility Wind Speed Wind Dir Waves Ship Positions

Cap Castillo

Last reported at 2017-Apr-16 03:01 UTC. Time now 2017-Apr-28 08:15 UTC.
Position S 24°44' W 046°42'.
Warning: this ship's position is 12 days out of date.

Length 215 m; draft 9.3 m.

Type: Ship. MMSI: 636091558.

Date/timePositionNaut miles runAvg speedWind from/ knotsBaromVisibWave heightAir tempDewpointWater temp
2017-Apr-16 03:01S 24°44' W 046°42'1019.3
2017-Apr-16 02:30S 24°36' W 046°36'1019.1
2017-Apr-16 02:01S 24°27' W 046°32'1019.0
2017-Apr-16 01:31S 24°18' W 046°28'1019.0
2017-Apr-16 01:00S 24°09' W 046°24'917.2
2017-Apr-16 00:30S 24°01' W 046°21'4 7.8
2017-Apr-16 00:00S 23°59' W 046°17'1 0.0
2017-Apr-14 22:20S 23°58' W 046°18'1 2.7
2017-Apr-14 22:00S 23°59' W 046°18'4 7.7
2017-Apr-14 21:31S 24°02' W 046°21'611.9
2017-Apr-14 21:00S 24°06' W 046°25'0 0.6
2017-Apr-14 20:31S 24°06' W 046°25'0 0.6
2017-Apr-14 20:00S 24°06' W 046°25'0 0.6
2017-Apr-14 19:30S 24°07' W 046°25'0 0.6
2017-Apr-14 19:00S 24°07' W 046°25'1 1.6
2017-Apr-14 18:30S 24°07' W 046°24'713.7
2017-Apr-14 18:00S 24°13' W 046°21'917.4
2017-Apr-14 17:30S 24°20' W 046°15'17614.3
2017-Apr-14 05:11S 23°11' W 043°17'313.4
2017-Apr-14 04:57S 23°10' W 043°14'613.2
2017-Apr-14 04:30S 23°07' W 043°09'612.2
2017-Apr-14 04:00S 23°01' W 043°06'612.9
2017-Apr-14 03:30S 22°55' W 043°09'4 7.8
2017-Apr-14 03:00S 22°53' W 043°12'0 0.5
2017-Apr-14 02:25S 22°53' W 043°12'0 0.0
2017-Apr-14 01:55S 22°53' W 043°12'0 0.0
2017-Apr-14 01:25S 22°53' W 043°12'0 0.0
2017-Apr-14 00:55S 22°53' W 043°12'0 0.0
2017-Apr-14 00:25S 22°53' W 043°12'0 0.0
2017-Apr-13 23:55S 22°53' W 043°12'0 0.0
2017-Apr-13 23:25S 22°53' W 043°12'0 0.0
2017-Apr-13 22:55S 22°53' W 043°12'0 0.0
2017-Apr-13 22:25S 22°53' W 043°12'0 0.0
2017-Apr-13 21:55S 22°53' W 043°12'0 0.0
2017-Apr-13 21:25S 22°53' W 043°12'0 0.0
2017-Apr-13 20:55S 22°53' W 043°12'0 0.0
2017-Apr-13 20:25S 22°53' W 043°12'0 0.0
2017-Apr-13 19:55S 22°53' W 043°12'0 0.0
2017-Apr-13 19:25S 22°53' W 043°12'0 0.0
2017-Apr-13 18:55S 22°53' W 043°12'0 0.0
2017-Apr-13 18:25S 22°53' W 043°12'0 0.0
2017-Apr-13 17:49S 22°53' W 043°12'0 0.0
2017-Apr-13 17:25S 22°53' W 043°12'0 0.0
2017-Apr-13 16:55S 22°53' W 043°12'0 0.0
2017-Apr-13 16:25S 22°53' W 043°12'1 1.4
2017-Apr-13 16:01S 22°53' W 043°12'4 7.6
2017-Apr-13 15:30S 22°55' W 043°09'611.1
2017-Apr-13 15:00S 23°00' W 043°07'713.1
2017-Apr-13 14:30S 23°05' W 043°02'14 8.2
2017-Apr-13 12:49S 23°05' W 042°47'1 1.6
2017-Apr-13 12:30S 23°05' W 042°47'0 0.3
2017-Apr-13 12:00S 23°05' W 042°47'  
2017-Apr-08 00:01N 00°16' W 050°37'221.3
2017-Apr-07 23:56N 00°15' W 050°38'921.3
2017-Apr-07 23:30N 00°11' W 050°47'1121.5
2017-Apr-07 23:01N 00°08' W 050°57'1121.0
2017-Apr-07 22:30S 00°01' W 051°03'714.5
2017-Apr-07 22:00S 00°06' W 051°08'713.9
2017-Apr-07 21:30S 00°09' W 051°14'  
Track history (hours):
 
Tides and Currents Weather Stations Pressure Air Temp Water Temp Dewpoint Dewpoint Depression Visibility Wind Speed Wind Dir Waves Ship Positions

Cap Castillo

Last reported at 2017-Apr-16 03:01 UTC. Time now 2017-Apr-28 08:15 UTC.
Position S 24°44' W 046°42'.
Warning: this ship's position is 12 days out of date.

Length 215 m; draft 9.3 m.

Type: Ship. MMSI: 636091558.

Date/timePositionNaut miles runAvg speedWind from/ knotsBaromVisibWave heightAir tempDewpointWater temp
2017-Apr-16 03:01S 24°44' W 046°42'1019.3
2017-Apr-16 02:30S 24°36' W 046°36'1019.1
2017-Apr-16 02:01S 24°27' W 046°32'1019.0
2017-Apr-16 01:31S 24°18' W 046°28'1019.0
2017-Apr-16 01:00S 24°09' W 046°24'917.2
2017-Apr-16 00:30S 24°01' W 046°21'4 7.8
2017-Apr-16 00:00S 23°59' W 046°17'1 0.0
2017-Apr-14 22:20S 23°58' W 046°18'1 2.7
2017-Apr-14 22:00S 23°59' W 046°18'4 7.7
2017-Apr-14 21:31S 24°02' W 046°21'611.9
2017-Apr-14 21:00S 24°06' W 046°25'0 0.6
2017-Apr-14 20:31S 24°06' W 046°25'0 0.6
2017-Apr-14 20:00S 24°06' W 046°25'0 0.6
2017-Apr-14 19:30S 24°07' W 046°25'0 0.6
2017-Apr-14 19:00S 24°07' W 046°25'1 1.6
2017-Apr-14 18:30S 24°07' W 046°24'713.7
2017-Apr-14 18:00S 24°13' W 046°21'917.4
2017-Apr-14 17:30S 24°20' W 046°15'17614.3
2017-Apr-14 05:11S 23°11' W 043°17'313.4
2017-Apr-14 04:57S 23°10' W 043°14'613.2
2017-Apr-14 04:30S 23°07' W 043°09'612.2
2017-Apr-14 04:00S 23°01' W 043°06'612.9
2017-Apr-14 03:30S 22°55' W 043°09'4 7.8
2017-Apr-14 03:00S 22°53' W 043°12'0 0.5
2017-Apr-14 02:25S 22°53' W 043°12'0 0.0
2017-Apr-14 01:55S 22°53' W 043°12'0 0.0
2017-Apr-14 01:25S 22°53' W 043°12'0 0.0
2017-Apr-14 00:55S 22°53' W 043°12'0 0.0
2017-Apr-14 00:25S 22°53' W 043°12'0 0.0
2017-Apr-13 23:55S 22°53' W 043°12'0 0.0
2017-Apr-13 23:25S 22°53' W 043°12'0 0.0
2017-Apr-13 22:55S 22°53' W 043°12'0 0.0
2017-Apr-13 22:25S 22°53' W 043°12'0 0.0
2017-Apr-13 21:55S 22°53' W 043°12'0 0.0
2017-Apr-13 21:25S 22°53' W 043°12'0 0.0
2017-Apr-13 20:55S 22°53' W 043°12'0 0.0
2017-Apr-13 20:25S 22°53' W 043°12'0 0.0
2017-Apr-13 19:55S 22°53' W 043°12'0 0.0
2017-Apr-13 19:25S 22°53' W 043°12'0 0.0
2017-Apr-13 18:55S 22°53' W 043°12'0 0.0
2017-Apr-13 18:25S 22°53' W 043°12'0 0.0
2017-Apr-13 17:49S 22°53' W 043°12'0 0.0
2017-Apr-13 17:25S 22°53' W 043°12'0 0.0
2017-Apr-13 16:55S 22°53' W 043°12'0 0.0
2017-Apr-13 16:25S 22°53' W 043°12'1 1.4
2017-Apr-13 16:01S 22°53' W 043°12'4 7.6
2017-Apr-13 15:30S 22°55' W 043°09'611.1
2017-Apr-13 15:00S 23°00' W 043°07'713.1
2017-Apr-13 14:30S 23°05' W 043°02'14 8.2
2017-Apr-13 12:49S 23°05' W 042°47'1 1.6
2017-Apr-13 12:30S 23°05' W 042°47'0 0.3
2017-Apr-13 12:00S 23°05' W 042°47'  
2017-Apr-08 00:01N 00°16' W 050°37'221.3
2017-Apr-07 23:56N 00°15' W 050°38'921.3
2017-Apr-07 23:30N 00°11' W 050°47'1121.5
2017-Apr-07 23:01N 00°08' W 050°57'1121.0
2017-Apr-07 22:30S 00°01' W 051°03'714.5
2017-Apr-07 22:00S 00°06' W 051°08'713.9
2017-Apr-07 21:30S 00°09' W 051°14'  

Dump ship's entire track history